createdAt,value
2023-05-13T00:00:42.037Z,7.79
2023-05-13T00:01:42.023Z,7.77
2023-05-13T00:02:42.084Z,7.75
2023-05-13T00:03:42.119Z,7.72
2023-05-13T00:04:41.983Z,7.74
2023-05-13T00:05:42.030Z,7.74
2023-05-13T00:06:42.002Z,7.74
2023-05-13T00:07:41.947Z,7.72
2023-05-13T00:08:41.934Z,7.72
2023-05-13T00:09:41.925Z,7.72
2023-05-13T00:10:41.902Z,7.69
2023-05-13T00:11:41.890Z,7.69
2023-05-13T00:12:41.879Z,7.67
2023-05-13T00:13:41.866Z,7.66
2023-05-13T00:14:41.858Z,7.59
2023-05-13T00:15:41.841Z,7.56
2023-05-13T00:16:42.015Z,7.55
2023-05-13T00:17:41.829Z,7.52
2023-05-13T00:18:41.879Z,7.53
2023-05-13T00:19:41.793Z,7.50
2023-05-13T00:20:41.797Z,7.52
2023-05-13T00:21:41.756Z,7.45
2023-05-13T00:22:41.749Z,7.45
2023-05-13T00:23:41.738Z,7.45
2023-05-13T00:24:41.722Z,7.42
2023-05-13T00:25:41.720Z,7.41
2023-05-13T00:26:41.684Z,7.38
2023-05-13T00:27:41.682Z,7.38
2023-05-13T00:28:41.671Z,7.35
2023-05-13T00:29:41.664Z,7.34
2023-05-13T00:30:41.659Z,7.34
2023-05-13T00:31:41.800Z,7.34
2023-05-13T00:32:41.689Z,7.31
2023-05-13T00:33:41.608Z,7.31
2023-05-13T00:34:41.609Z,7.29
2023-05-13T00:35:41.587Z,7.31
2023-05-13T00:36:41.569Z,7.26
2023-05-13T00:37:41.558Z,7.26
2023-05-13T00:38:41.564Z,7.27
2023-05-13T00:39:41.524Z,7.26
2023-05-13T00:40:41.516Z,7.22
2023-05-13T00:41:41.522Z,7.19
2023-05-13T00:42:41.522Z,7.16
2023-05-13T00:43:41.486Z,7.13
2023-05-13T00:44:41.478Z,7.12
2023-05-13T00:45:41.502Z,7.08
2023-05-13T00:46:41.447Z,7.08
2023-05-13T00:47:41.615Z,7.07
2023-05-13T00:48:41.424Z,7.05
2023-05-13T00:49:41.413Z,7.04
2023-05-13T00:50:41.385Z,7.02
2023-05-13T00:51:41.374Z,7.04
2023-05-13T00:52:41.358Z,7.02
2023-05-13T00:53:41.339Z,7.04
2023-05-13T00:54:41.346Z,7.01
2023-05-13T00:55:41.318Z,6.99
2023-05-13T00:56:41.310Z,6.95
2023-05-13T00:57:41.294Z,6.94
2023-05-13T00:58:41.290Z,6.98
2023-05-13T00:59:41.252Z,6.99
2023-05-13T01:00:41.268Z,6.98
2023-05-13T01:01:41.252Z,6.98
2023-05-13T01:02:41.380Z,6.97
2023-05-13T01:03:41.338Z,6.98
2023-05-13T01:04:41.202Z,6.98
2023-05-13T01:05:41.185Z,7.01
2023-05-13T01:06:41.171Z,6.99
2023-05-13T01:07:41.166Z,6.98
2023-05-13T01:08:41.161Z,6.97
2023-05-13T01:09:41.123Z,6.98
2023-05-13T01:10:41.116Z,6.98
2023-05-13T01:11:41.112Z,6.99
2023-05-13T01:12:41.094Z,6.99
2023-05-13T01:13:41.076Z,6.99
2023-05-13T01:14:41.066Z,6.98
2023-05-13T01:15:41.059Z,6.99
2023-05-13T01:16:41.159Z,6.97
2023-05-13T01:17:41.067Z,6.97
2023-05-13T01:18:41.029Z,6.95
2023-05-13T01:19:40.993Z,6.90
2023-05-13T01:20:40.985Z,6.87
2023-05-13T01:21:40.997Z,6.84
2023-05-13T01:22:40.960Z,6.84
2023-05-13T01:23:40.938Z,6.81
2023-05-13T01:24:40.988Z,6.81
2023-05-13T01:25:40.908Z,6.77
2023-05-13T01:26:40.910Z,6.77
2023-05-13T01:27:40.893Z,6.77
2023-05-13T01:28:40.871Z,6.72
2023-05-13T01:29:40.883Z,6.72
2023-05-13T01:30:40.859Z,6.71
2023-05-13T01:31:40.890Z,6.69
2023-05-13T01:32:40.874Z,6.71
2023-05-13T01:33:40.808Z,6.76
2023-05-13T01:34:40.826Z,6.80
2023-05-13T01:35:40.783Z,6.81
2023-05-13T01:36:40.766Z,6.86
2023-05-13T01:37:40.759Z,6.87
2023-05-13T01:38:40.745Z,6.90
2023-05-13T01:39:40.733Z,6.94
2023-05-13T01:40:40.740Z,6.97
2023-05-13T01:41:40.728Z,6.99
2023-05-13T01:42:40.705Z,7.02
2023-05-13T01:43:40.688Z,7.02
2023-05-13T01:44:40.674Z,7.05
2023-05-13T01:45:40.662Z,7.05
2023-05-13T01:46:40.769Z,7.07
2023-05-13T01:47:40.636Z,7.07
2023-05-13T01:48:40.607Z,7.07
2023-05-13T01:49:40.611Z,7.07
2023-05-13T01:50:40.602Z,7.08
2023-05-13T01:51:40.559Z,7.09
2023-05-13T01:52:40.563Z,7.08
2023-05-13T01:53:40.542Z,7.08
2023-05-13T01:54:40.548Z,7.08
2023-05-13T01:55:40.520Z,7.08
2023-05-13T01:56:40.512Z,7.07
2023-05-13T01:57:40.490Z,7.07
2023-05-13T01:58:40.482Z,7.05
2023-05-13T01:59:40.472Z,7.02
2023-05-13T02:00:40.465Z,7.02
2023-05-13T02:01:40.620Z,7.01
2023-05-13T02:02:40.485Z,6.99
2023-05-13T02:03:40.515Z,7.01
2023-05-13T02:04:40.410Z,7.01
2023-05-13T02:05:40.387Z,7.01
2023-05-13T02:06:40.390Z,7.05
2023-05-13T02:07:40.360Z,7.08
2023-05-13T02:08:40.364Z,7.09
2023-05-13T02:09:40.356Z,7.09
2023-05-13T02:10:40.322Z,7.09
2023-05-13T02:11:40.308Z,7.09
2023-05-13T02:12:40.291Z,7.15
2023-05-13T02:13:40.303Z,7.15
2023-05-13T02:14:40.288Z,7.17
2023-05-13T02:15:40.247Z,7.23
2023-05-13T02:16:40.372Z,7.24
2023-05-13T02:17:40.259Z,7.29
2023-05-13T02:18:40.299Z,7.34
2023-05-13T02:19:40.204Z,7.34
2023-05-13T02:20:40.198Z,7.37
2023-05-13T02:21:40.185Z,7.35
2023-05-13T02:22:40.180Z,7.37
2023-05-13T02:23:40.164Z,7.40
2023-05-13T02:24:40.148Z,7.40
2023-05-13T02:25:40.146Z,7.38
2023-05-13T02:26:40.117Z,7.38
2023-05-13T02:27:40.103Z,7.41
2023-05-13T02:28:40.094Z,7.42
2023-05-13T02:29:40.088Z,7.42
2023-05-13T02:30:40.064Z,7.44
2023-05-13T02:31:40.091Z,7.44
2023-05-13T02:32:40.104Z,7.44
2023-05-13T02:33:40.012Z,7.44
2023-05-13T02:34:40.014Z,7.45
2023-05-13T02:35:40.007Z,7.45
2023-05-13T02:36:39.992Z,7.45
2023-05-13T02:37:39.975Z,7.50
2023-05-13T02:38:39.966Z,7.53
2023-05-13T02:39:39.956Z,7.56
2023-05-13T02:40:39.934Z,7.58
2023-05-13T02:41:39.933Z,7.59
2023-05-13T02:42:39.904Z,7.59
2023-05-13T02:43:39.891Z,7.62
2023-05-13T02:44:39.872Z,7.66
2023-05-13T02:45:39.898Z,7.66
2023-05-13T02:46:39.857Z,7.67
2023-05-13T02:47:39.886Z,7.69
2023-05-13T02:48:39.816Z,7.71
2023-05-13T02:49:39.810Z,7.71
2023-05-13T02:50:39.799Z,7.75
2023-05-13T02:51:39.802Z,7.75
2023-05-13T02:52:39.777Z,7.78
2023-05-13T02:53:39.772Z,7.81
2023-05-13T02:54:39.829Z,7.84
2023-05-13T02:55:39.755Z,7.85
2023-05-13T02:56:39.722Z,7.85
2023-05-13T02:57:39.722Z,7.85
2023-05-13T02:58:39.689Z,7.89
2023-05-13T02:59:39.689Z,7.89
2023-05-13T03:00:39.708Z,7.92
2023-05-13T03:01:39.670Z,7.93
2023-05-13T03:02:39.694Z,7.96
2023-05-13T03:03:39.699Z,7.99
2023-05-13T03:04:39.621Z,8.00
2023-05-13T03:05:39.616Z,8.00
2023-05-13T03:06:46.647Z,8.02
2023-05-13T03:07:39.591Z,8.07
2023-05-13T03:08:39.593Z,8.08
2023-05-13T03:09:39.572Z,8.11
2023-05-13T03:10:39.596Z,8.11
2023-05-13T03:11:39.533Z,8.12
2023-05-13T03:12:39.523Z,8.12
2023-05-13T03:13:39.527Z,8.12
2023-05-13T03:14:39.489Z,8.12
2023-05-13T03:15:41.487Z,8.14
2023-05-13T03:16:39.526Z,8.17
2023-05-13T03:17:39.529Z,8.17
2023-05-13T03:18:39.505Z,8.20
2023-05-13T03:19:39.447Z,8.21
2023-05-13T03:20:39.414Z,8.22
2023-05-13T03:21:39.407Z,8.25
2023-05-13T03:22:39.392Z,8.26
2023-05-13T03:23:39.406Z,8.29
2023-05-13T03:24:39.364Z,8.30
2023-05-13T03:25:39.355Z,8.30
2023-05-13T03:26:39.338Z,8.32
2023-05-13T03:27:39.324Z,8.33
2023-05-13T03:28:39.336Z,8.33
2023-05-13T03:29:39.304Z,8.36
2023-05-13T03:30:39.308Z,8.35
2023-05-13T03:31:39.321Z,8.37
2023-05-13T03:32:39.305Z,8.37
2023-05-13T03:33:39.268Z,8.39
2023-05-13T03:34:39.239Z,8.39
2023-05-13T03:35:39.246Z,8.42
2023-05-13T03:36:39.208Z,8.42
2023-05-13T03:37:39.211Z,8.40
2023-05-13T03:38:39.205Z,8.44
2023-05-13T03:39:39.181Z,8.45
2023-05-13T03:40:39.161Z,8.45
2023-05-13T03:41:39.147Z,8.45
2023-05-13T03:42:39.145Z,8.44
2023-05-13T03:43:39.125Z,8.44
2023-05-13T03:44:39.108Z,8.45
2023-05-13T03:45:39.100Z,8.47
2023-05-13T03:46:39.160Z,8.45
2023-05-13T03:47:39.152Z,8.47
2023-05-13T03:48:39.063Z,8.44
2023-05-13T03:49:39.069Z,8.44
2023-05-13T04:03:12.581Z,8.55
2023-05-13T04:04:12.522Z,8.54
2023-05-13T04:05:12.561Z,8.54
2023-05-13T04:06:12.504Z,8.57
2023-05-13T04:07:12.492Z,8.55
2023-05-13T04:08:12.487Z,8.58
2023-05-13T04:09:12.452Z,8.60
2023-05-13T04:10:15.223Z,8.58
2023-05-13T04:11:12.435Z,8.60
2023-05-13T04:12:12.432Z,8.60
2023-05-13T04:13:12.412Z,8.58
2023-05-13T04:14:12.378Z,8.57
2023-05-13T04:15:12.381Z,8.57
2023-05-13T04:16:12.366Z,8.55
2023-05-13T04:17:12.501Z,8.57
2023-05-13T04:18:12.338Z,8.57
2023-05-13T04:19:12.386Z,8.55
2023-05-13T04:20:12.321Z,8.57
2023-05-13T04:21:12.295Z,8.57
2023-05-13T04:22:12.292Z,8.57
2023-05-13T04:23:12.267Z,8.60
2023-05-13T04:24:12.263Z,8.60
2023-05-13T04:25:12.258Z,8.63
2023-05-13T04:26:12.235Z,8.63
2023-05-13T04:27:12.208Z,8.65
2023-05-13T04:28:12.204Z,8.66
2023-05-13T04:29:12.206Z,8.69
2023-05-13T04:30:12.179Z,8.69
2023-05-13T04:31:12.187Z,8.71
2023-05-13T04:32:12.288Z,8.72
2023-05-13T04:33:12.249Z,8.75
2023-05-13T04:34:12.134Z,8.76
2023-05-13T04:35:12.109Z,8.78
2023-05-13T04:36:14.919Z,8.83
2023-05-13T04:37:12.307Z,8.86
2023-05-13T04:38:12.069Z,8.88
2023-05-13T04:39:12.065Z,8.91
2023-05-13T04:40:12.043Z,8.94
2023-05-13T04:41:12.017Z,8.99
2023-05-13T04:42:12.021Z,9.01
2023-05-13T04:43:12.033Z,9.02
2023-05-13T04:44:11.997Z,9.05
2023-05-13T04:45:11.972Z,9.10
2023-05-13T04:46:12.012Z,9.15
2023-05-13T04:47:11.954Z,9.18
2023-05-13T04:48:11.995Z,9.20
2023-05-13T04:49:11.922Z,9.24
2023-05-13T04:50:11.924Z,9.25
2023-05-13T04:51:11.929Z,9.28
2023-05-13T04:52:11.889Z,9.31
2023-05-13T04:53:11.890Z,9.30
2023-05-13T04:54:11.851Z,9.34
2023-05-13T04:55:11.847Z,9.35
2023-05-13T04:56:11.836Z,9.38
2023-05-13T04:57:11.834Z,9.42
2023-05-13T04:58:11.810Z,9.43
2023-05-13T04:59:11.781Z,9.46
2023-05-13T05:00:11.783Z,9.49
2023-05-13T05:01:11.792Z,9.50
2023-05-13T05:02:11.763Z,9.53
2023-05-13T05:03:11.741Z,9.56
2023-05-13T05:04:11.748Z,9.56
2023-05-13T05:05:11.765Z,9.58
2023-05-13T05:06:11.711Z,9.63
2023-05-13T05:07:11.713Z,9.61
2023-05-13T05:08:11.679Z,9.66
2023-05-13T05:09:11.641Z,9.67
2023-05-13T05:10:11.646Z,9.70
2023-05-13T05:11:11.635Z,9.73
2023-05-13T05:12:11.626Z,9.76
2023-05-13T05:13:11.603Z,9.78
2023-05-13T05:14:11.657Z,9.81
2023-05-13T05:15:11.571Z,9.83
2023-05-13T05:16:11.587Z,9.86
2023-05-13T05:17:11.603Z,9.88
2023-05-13T05:18:11.773Z,9.91
2023-05-13T05:19:11.613Z,9.96
2023-05-13T05:20:11.516Z,9.97
2023-05-13T05:21:11.515Z,10.00
2023-05-13T05:22:11.497Z,10.03
2023-05-13T05:23:11.498Z,10.06
2023-05-13T05:24:11.473Z,10.09
2023-05-13T05:25:11.456Z,10.10
2023-05-13T05:26:12.450Z,10.15
2023-05-13T05:27:11.430Z,10.19
2023-05-13T05:28:11.440Z,10.22
2023-05-13T05:29:11.413Z,10.24
2023-05-13T05:30:11.404Z,10.25
2023-05-13T05:31:11.412Z,10.26
2023-05-13T05:32:11.365Z,10.26
2023-05-13T05:33:11.354Z,10.32
2023-05-13T05:34:11.346Z,10.33
2023-05-13T05:35:11.341Z,10.36
2023-05-13T05:36:11.326Z,10.39
2023-05-13T05:37:11.327Z,10.40
2023-05-13T05:38:11.372Z,10.42
2023-05-13T05:39:11.321Z,10.43
2023-05-13T05:40:11.264Z,10.46
2023-05-13T05:41:11.247Z,10.47
2023-05-13T05:42:11.241Z,10.51
2023-05-13T05:43:11.221Z,10.52
2023-05-13T05:44:11.244Z,10.55
2023-05-13T05:45:11.206Z,10.59
2023-05-13T05:46:11.228Z,10.58
2023-05-13T05:47:11.171Z,10.60
2023-05-13T05:48:11.233Z,10.59
2023-05-13T05:49:11.151Z,10.63
2023-05-13T05:50:11.131Z,10.65
2023-05-13T05:51:11.125Z,10.65
2023-05-13T05:52:11.109Z,10.65
2023-05-13T05:53:11.082Z,10.66
2023-05-13T05:54:11.089Z,10.68
2023-05-13T05:55:11.062Z,10.71
2023-05-13T05:56:11.057Z,10.71
2023-05-13T05:57:11.044Z,10.73
2023-05-13T05:58:11.042Z,10.76
2023-05-13T05:59:11.023Z,10.78
2023-05-13T06:00:10.997Z,10.80
2023-05-13T06:01:11.033Z,10.80
2023-05-13T06:02:11.006Z,10.84
2023-05-13T06:03:11.084Z,10.84
2023-05-13T06:04:11.025Z,10.89
2023-05-13T06:05:10.960Z,10.91
2023-05-13T06:06:10.923Z,10.94
2023-05-13T06:07:11.143Z,10.94
2023-05-13T06:08:10.911Z,10.96
2023-05-13T06:09:10.949Z,10.98
2023-05-13T06:10:10.878Z,11.01
2023-05-13T06:11:10.862Z,11.02
2023-05-13T06:12:10.856Z,11.03
2023-05-13T06:13:10.844Z,11.07
2023-05-13T06:14:10.813Z,11.09
2023-05-13T06:15:10.800Z,11.09
2023-05-13T06:16:10.872Z,11.09
2023-05-13T06:17:10.784Z,11.11
2023-05-13T06:18:10.873Z,11.11
2023-05-13T06:19:10.856Z,11.16
2023-05-13T06:20:10.734Z,11.17
2023-05-13T06:21:10.724Z,11.20
2023-05-13T06:22:10.770Z,11.20
2023-05-13T06:23:10.709Z,11.24
2023-05-13T06:24:10.998Z,11.24
2023-05-13T06:25:10.669Z,11.25
2023-05-13T06:26:10.663Z,11.24
2023-05-13T06:27:10.658Z,11.27
2023-05-13T06:28:10.626Z,11.28
2023-05-13T06:29:10.620Z,11.31
2023-05-13T06:30:10.632Z,11.34
2023-05-13T06:31:10.656Z,11.35
2023-05-13T06:32:10.580Z,11.35
2023-05-13T06:33:10.650Z,11.38
2023-05-13T06:34:10.556Z,11.38
2023-05-13T06:35:10.547Z,11.39
2023-05-13T06:36:10.546Z,11.43
2023-05-13T06:37:10.554Z,11.46
2023-05-13T06:38:10.507Z,11.49
2023-05-13T06:39:10.540Z,11.50
2023-05-13T06:40:10.587Z,11.52
2023-05-13T06:41:10.479Z,11.53
2023-05-13T06:42:12.406Z,11.56
2023-05-13T06:43:10.430Z,11.57
2023-05-13T06:44:10.436Z,11.57
2023-05-13T06:45:10.399Z,11.61
2023-05-13T06:46:10.461Z,11.62
2023-05-13T06:47:10.586Z,11.62
2023-05-13T06:48:10.542Z,11.65
2023-05-13T06:49:10.356Z,11.67
2023-05-13T06:50:10.352Z,11.68
2023-05-13T06:51:10.323Z,11.71
2023-05-13T06:52:10.299Z,11.71
2023-05-13T06:53:10.303Z,11.74
2023-05-13T06:54:10.290Z,11.75
2023-05-13T06:55:10.281Z,11.75
2023-05-13T06:56:10.276Z,11.77
2023-05-13T06:57:10.233Z,11.78
2023-05-13T06:58:10.231Z,11.80
2023-05-13T06:59:10.407Z,11.82
2023-05-13T07:00:10.232Z,11.83
2023-05-13T07:01:10.219Z,11.83
2023-05-13T07:02:10.374Z,11.83
2023-05-13T07:03:10.176Z,11.85
2023-05-13T07:04:10.453Z,11.83
2023-05-13T07:05:11.393Z,11.85
2023-05-13T07:06:10.154Z,11.83
2023-05-13T07:07:10.197Z,11.85
2023-05-13T07:08:10.091Z,11.86
2023-05-13T07:09:10.134Z,11.89
2023-05-13T07:10:10.118Z,11.90
2023-05-13T07:11:10.223Z,11.93
2023-05-13T07:12:10.050Z,11.93
2023-05-13T07:13:10.030Z,11.94
2023-05-13T07:14:10.209Z,11.96
2023-05-13T07:15:10.024Z,11.97
2023-05-13T07:16:10.007Z,11.99
2023-05-13T07:17:10.043Z,12.02
2023-05-13T07:18:09.989Z,12.05
2023-05-13T07:19:10.056Z,12.05
2023-05-13T07:20:09.950Z,12.08
2023-05-13T07:21:09.944Z,12.11
2023-05-13T07:22:09.920Z,12.12
2023-05-13T07:23:09.901Z,12.15
2023-05-13T07:24:10.051Z,12.15
2023-05-13T07:25:09.878Z,12.16
2023-05-13T07:26:09.859Z,12.19
2023-05-13T07:27:09.848Z,12.21
2023-05-13T07:28:09.923Z,12.23
2023-05-13T07:29:09.822Z,12.23
2023-05-13T07:30:09.809Z,12.23
2023-05-13T07:31:09.875Z,12.21
2023-05-13T07:32:09.781Z,12.24
2023-05-13T07:33:09.828Z,12.23
2023-05-13T07:34:09.774Z,12.24
2023-05-13T07:35:09.743Z,12.24
2023-05-13T07:36:09.744Z,12.26
2023-05-13T07:37:09.733Z,12.27
2023-05-13T07:38:09.702Z,12.29
2023-05-13T07:39:09.707Z,12.30
2023-05-13T07:40:09.680Z,12.30
2023-05-13T07:41:09.681Z,12.30
2023-05-13T07:42:09.657Z,12.30
2023-05-13T07:43:09.668Z,12.33
2023-05-13T07:44:09.624Z,12.31
2023-05-13T07:45:09.611Z,12.33
2023-05-13T07:46:09.595Z,12.33
2023-05-13T07:47:09.659Z,12.33
2023-05-13T07:48:09.605Z,12.34
2023-05-13T07:49:09.560Z,12.38
2023-05-13T07:50:09.552Z,12.39
2023-05-13T07:51:09.546Z,12.39
2023-05-13T07:52:09.534Z,12.41
2023-05-13T07:53:09.508Z,12.39
2023-05-13T07:54:09.514Z,12.38
2023-05-13T07:55:09.489Z,12.38
2023-05-13T07:56:09.476Z,12.37
2023-05-13T07:57:09.472Z,12.38
2023-05-13T07:58:09.450Z,12.37
2023-05-13T07:59:09.436Z,12.39
2023-05-13T08:00:09.422Z,12.42
2023-05-13T08:01:09.421Z,12.44
2023-05-13T08:02:09.413Z,12.46
2023-05-13T08:03:09.429Z,12.45
2023-05-13T08:04:09.570Z,12.49
2023-05-13T08:05:09.448Z,12.51
2023-05-13T08:06:09.337Z,12.52
2023-05-13T08:07:09.359Z,12.54
2023-05-13T08:08:09.310Z,12.54
2023-05-13T08:09:09.316Z,12.56
2023-05-13T08:10:09.296Z,12.57
2023-05-13T08:11:09.280Z,12.56
2023-05-13T08:12:09.250Z,12.59
2023-05-13T08:13:09.241Z,12.57
2023-05-13T08:14:09.247Z,12.59
2023-05-13T08:15:09.234Z,12.60
2023-05-13T08:16:09.272Z,12.60
2023-05-13T08:17:09.196Z,12.60
2023-05-13T08:18:09.199Z,12.60
2023-05-13T08:19:09.205Z,12.62
2023-05-13T08:20:09.165Z,12.63
2023-05-13T08:21:09.130Z,12.64
2023-05-13T08:22:09.145Z,12.64
2023-05-13T08:23:09.112Z,12.64
2023-05-13T08:24:09.110Z,12.64
2023-05-13T08:25:09.088Z,12.64
2023-05-13T08:26:09.079Z,12.66
2023-05-13T08:27:09.072Z,12.64
2023-05-13T08:28:09.045Z,12.64
2023-05-13T08:29:09.052Z,12.64
2023-05-13T08:30:09.016Z,12.64
2023-05-13T08:31:09.009Z,12.63
2023-05-13T08:32:09.030Z,12.63
2023-05-13T08:33:09.036Z,12.63
2023-05-13T08:34:08.975Z,12.64
2023-05-13T08:35:08.988Z,12.64
2023-05-13T08:36:08.945Z,12.64
2023-05-13T08:37:08.928Z,12.66
2023-05-13T08:38:08.921Z,12.66
2023-05-13T08:39:08.902Z,12.64
2023-05-13T08:40:08.979Z,12.64
2023-05-13T08:41:08.879Z,12.63
2023-05-13T08:42:08.869Z,12.64
2023-05-13T08:43:08.868Z,12.66
2023-05-13T08:44:08.837Z,12.67
2023-05-13T08:45:08.828Z,12.69
2023-05-13T08:46:08.812Z,12.70
2023-05-13T08:47:08.808Z,12.71
2023-05-13T08:48:08.834Z,12.75
2023-05-13T08:49:08.771Z,12.78
2023-05-13T08:50:08.766Z,12.81
2023-05-13T08:51:08.750Z,12.81
2023-05-13T08:52:08.739Z,12.82
2023-05-13T08:53:08.739Z,12.85
2023-05-13T08:54:08.706Z,12.89
2023-05-13T08:55:08.712Z,12.96
2023-05-13T08:56:08.693Z,12.99
2023-05-13T08:57:08.682Z,12.99
2023-05-13T08:58:08.677Z,13.03
2023-05-13T08:59:08.650Z,13.07
2023-05-13T09:00:08.640Z,13.11
2023-05-13T09:01:08.680Z,13.15
2023-05-13T09:02:08.606Z,13.20
2023-05-13T09:03:08.666Z,13.24
2023-05-13T09:04:08.640Z,13.29
2023-05-13T09:05:08.657Z,13.30
2023-05-13T09:06:08.551Z,13.36
2023-05-13T09:07:08.557Z,13.38
2023-05-13T09:08:08.534Z,13.40
2023-05-13T09:09:08.513Z,13.43
2023-05-13T09:10:08.527Z,13.46
2023-05-13T09:11:08.496Z,13.47
2023-05-13T09:12:08.487Z,13.51
2023-05-13T09:13:08.481Z,13.54
2023-05-13T09:14:08.457Z,13.54
2023-05-13T09:15:08.549Z,13.56
2023-05-13T09:16:08.475Z,13.58
2023-05-13T09:17:08.425Z,13.58
2023-05-13T09:18:08.482Z,13.61
2023-05-13T09:19:08.549Z,13.62
2023-05-13T09:20:08.377Z,13.63
2023-05-13T09:21:08.534Z,13.65
2023-05-13T09:22:08.442Z,13.65
2023-05-13T09:23:08.348Z,13.67
2023-05-13T09:24:09.575Z,13.70
2023-05-13T09:25:08.500Z,13.71
2023-05-13T09:26:08.338Z,13.71
2023-05-13T09:27:08.707Z,13.76
2023-05-13T09:28:08.556Z,13.76
2023-05-13T09:29:08.254Z,13.79
2023-05-13T09:30:08.273Z,13.81
2023-05-13T09:31:08.267Z,13.84
2023-05-13T09:32:08.202Z,13.88
2023-05-13T09:33:08.291Z,13.88
2023-05-13T09:34:08.308Z,13.87
2023-05-13T09:35:08.212Z,13.88
2023-05-13T09:36:08.196Z,13.88
2023-05-13T09:37:08.181Z,13.84
2023-05-13T09:38:08.168Z,13.83
2023-05-13T09:39:08.141Z,13.79
2023-05-13T09:40:08.207Z,13.79
2023-05-13T09:41:08.102Z,13.79
2023-05-13T09:42:08.178Z,13.74
2023-05-13T09:43:08.183Z,13.73
2023-05-13T09:44:08.193Z,13.73
2023-05-13T09:45:08.077Z,13.71
2023-05-13T09:46:08.042Z,13.70
2023-05-13T09:47:08.147Z,13.69
2023-05-13T10:03:29.310Z,13.58
2023-05-13T10:04:29.284Z,13.62
2023-05-13T10:05:29.245Z,13.70
2023-05-13T10:06:29.250Z,13.77
2023-05-13T10:07:29.221Z,13.87
2023-05-13T10:08:29.206Z,13.98
2023-05-13T10:09:29.222Z,14.06
2023-05-13T10:10:29.177Z,14.12
2023-05-13T10:11:29.160Z,14.19
2023-05-13T10:12:29.172Z,14.24
2023-05-13T10:13:29.139Z,14.29
2023-05-13T10:14:29.130Z,14.28
2023-05-13T10:15:29.110Z,14.28
2023-05-13T10:16:29.190Z,14.27
2023-05-13T10:17:29.189Z,14.24
2023-05-13T10:18:29.369Z,14.21
2023-05-13T10:19:29.061Z,14.21
2023-05-13T10:20:29.061Z,14.19
2023-05-13T10:21:29.035Z,14.24
2023-05-13T10:22:29.040Z,14.31
2023-05-13T10:23:29.015Z,14.38
2023-05-13T10:24:29.038Z,14.46
2023-05-13T10:25:28.987Z,14.50
2023-05-13T10:26:28.983Z,14.54
2023-05-13T10:27:28.950Z,14.60
2023-05-13T10:28:29.013Z,14.64
2023-05-13T10:29:28.925Z,14.65
2023-05-13T10:30:28.921Z,14.67
2023-05-13T10:31:28.929Z,14.67
2023-05-13T10:32:28.913Z,14.65
2023-05-13T10:33:28.874Z,14.62
2023-05-13T10:34:28.868Z,14.61
2023-05-13T10:35:28.860Z,14.62
2023-05-13T10:36:28.831Z,14.61
2023-05-13T10:37:28.907Z,14.62
2023-05-13T10:38:28.832Z,14.62
2023-05-13T10:39:28.821Z,14.62
2023-05-13T10:40:28.792Z,14.65
2023-05-13T10:41:28.771Z,14.65
2023-05-13T10:42:28.763Z,14.68
2023-05-13T10:43:28.753Z,14.71
2023-05-13T10:44:28.745Z,14.75
2023-05-13T10:45:28.786Z,14.74
2023-05-13T10:46:28.752Z,14.72
2023-05-13T10:47:28.767Z,14.72
2023-05-13T10:48:28.782Z,14.71
2023-05-13T10:49:28.676Z,14.69
2023-05-13T10:50:28.656Z,14.72
2023-05-13T10:51:28.648Z,14.78
2023-05-13T10:52:28.612Z,14.84
2023-05-13T10:53:28.619Z,14.88
2023-05-13T10:54:28.607Z,14.98
2023-05-13T10:55:28.588Z,15.02
2023-05-13T10:56:28.702Z,15.09
2023-05-13T10:57:28.558Z,15.12
2023-05-13T10:58:28.542Z,15.17
2023-05-13T10:59:28.543Z,15.21
2023-05-13T11:00:28.571Z,15.27
2023-05-13T11:01:28.587Z,15.31
2023-05-13T11:02:28.565Z,15.33
2023-05-13T11:03:29.436Z,15.36
2023-05-13T11:04:28.476Z,15.39
2023-05-13T11:05:28.454Z,15.38
2023-05-13T11:06:28.512Z,15.39
2023-05-13T11:07:28.492Z,15.36
2023-05-13T11:08:28.458Z,15.35
2023-05-13T11:09:28.420Z,15.28
2023-05-13T11:10:28.386Z,15.23
2023-05-13T11:11:28.381Z,15.15
2023-05-13T11:12:28.349Z,15.11
2023-05-13T11:13:28.358Z,15.06
2023-05-13T11:14:28.335Z,15.02
2023-05-13T11:15:28.316Z,15.01
2023-05-13T11:16:28.374Z,14.94
2023-05-13T11:17:28.313Z,14.88
2023-05-13T11:18:28.288Z,14.83
2023-05-13T11:19:28.287Z,14.81
2023-05-13T11:20:28.260Z,14.75
2023-05-13T11:21:28.255Z,14.74
2023-05-13T11:22:28.248Z,14.72
2023-05-13T11:23:28.221Z,14.72
2023-05-13T11:24:28.204Z,14.67
2023-05-13T11:25:28.193Z,14.65
2023-05-13T11:26:28.190Z,14.65
2023-05-13T11:27:28.175Z,14.64
2023-05-13T11:28:28.136Z,14.68
2023-05-13T11:29:28.124Z,14.74
2023-05-13T11:30:28.121Z,14.81
2023-05-13T11:31:28.210Z,14.87
2023-05-13T11:32:28.181Z,14.98
2023-05-13T11:33:28.127Z,15.06
2023-05-13T11:34:28.059Z,15.13
2023-05-13T11:35:28.052Z,15.21
2023-05-13T11:36:28.044Z,15.26
2023-05-13T11:37:28.018Z,15.31
2023-05-13T11:38:28.232Z,15.33
2023-05-13T11:39:28.005Z,15.31
2023-05-13T11:40:28.001Z,15.36
2023-05-13T11:41:27.984Z,15.35
2023-05-13T11:42:27.968Z,15.36
2023-05-13T11:43:27.978Z,15.41
2023-05-13T11:44:27.959Z,15.41
2023-05-13T11:45:27.974Z,15.39
2023-05-13T11:46:27.979Z,15.38
2023-05-13T11:47:27.965Z,15.38
2023-05-13T11:48:27.872Z,15.39
2023-05-13T11:49:27.897Z,15.39
2023-05-13T11:50:27.864Z,15.38
2023-05-13T11:51:27.879Z,15.36
2023-05-13T11:52:27.846Z,15.38
2023-05-13T11:53:27.826Z,15.41
2023-05-13T11:54:27.848Z,15.41
2023-05-13T11:55:27.827Z,15.41
2023-05-13T11:56:27.791Z,15.41
2023-05-13T11:57:27.779Z,15.38
2023-05-13T11:58:27.778Z,15.38
2023-05-13T11:59:33.356Z,15.38
2023-05-13T12:00:28.705Z,15.38
2023-05-13T12:01:27.709Z,15.41
2023-05-13T12:02:27.794Z,15.45
2023-05-13T12:03:27.736Z,15.52
2023-05-13T12:04:27.682Z,15.63
2023-05-13T12:05:28.040Z,15.74
2023-05-13T12:06:27.654Z,15.86
2023-05-13T12:07:27.676Z,16.04
2023-05-13T12:08:27.641Z,16.16
2023-05-13T12:09:27.659Z,16.30
2023-05-13T12:10:27.597Z,16.38
2023-05-13T12:11:27.591Z,16.49
2023-05-13T12:12:27.559Z,16.60
2023-05-13T12:13:27.566Z,16.77
2023-05-13T12:14:27.885Z,17.00
2023-05-13T12:15:27.563Z,17.46
2023-05-13T12:16:27.966Z,17.73
2023-05-13T12:17:27.569Z,17.95
2023-05-13T12:18:27.521Z,18.06
2023-05-13T12:19:27.472Z,18.24
2023-05-13T12:20:27.457Z,18.33
2023-05-13T12:21:27.443Z,18.34
2023-05-13T12:22:27.427Z,18.24
2023-05-13T12:23:27.493Z,18.13
2023-05-13T12:24:27.466Z,17.97
2023-05-13T12:25:27.409Z,17.79
2023-05-13T12:26:27.383Z,17.66
2023-05-13T12:27:27.438Z,17.55
2023-05-13T12:28:27.363Z,17.43
2023-05-13T12:29:27.343Z,17.32
2023-05-13T12:30:27.321Z,17.29
2023-05-13T12:31:27.414Z,17.23
2023-05-13T12:32:27.338Z,17.20
2023-05-13T12:33:27.273Z,17.14
2023-05-13T12:34:27.292Z,17.14
2023-05-13T12:35:27.252Z,17.07
2023-05-13T12:36:27.282Z,17.10
2023-05-13T12:37:27.251Z,17.06
2023-05-13T12:38:27.222Z,17.06
2023-05-13T12:39:27.218Z,17.07
2023-05-13T12:40:27.207Z,17.10
2023-05-13T12:41:27.214Z,17.10
2023-05-13T12:42:27.184Z,17.07
2023-05-13T12:43:27.166Z,17.03
2023-05-13T12:44:27.225Z,16.96
2023-05-13T12:45:27.135Z,16.93
2023-05-13T12:46:27.135Z,16.92
2023-05-13T12:47:27.132Z,16.90
2023-05-13T12:48:27.213Z,16.92
2023-05-13T12:49:27.081Z,16.98
2023-05-13T12:50:27.054Z,17.04
2023-05-13T12:51:27.066Z,17.13
2023-05-13T12:52:27.048Z,17.26
2023-05-13T12:53:27.021Z,17.32
2023-05-13T12:54:27.008Z,17.36
2023-05-13T12:55:27.099Z,17.43
2023-05-13T12:56:26.978Z,17.50
2023-05-13T12:57:26.992Z,17.81
2023-05-13T12:58:26.953Z,17.91
2023-05-13T12:59:26.951Z,17.99
2023-05-13T13:00:26.938Z,18.03
2023-05-13T13:01:27.034Z,18.10
2023-05-13T13:02:27.009Z,18.22
2023-05-13T13:03:27.012Z,18.27
2023-05-13T13:04:26.887Z,18.31
2023-05-13T13:05:26.875Z,18.42
2023-05-13T13:06:26.874Z,18.61
2023-05-13T13:07:26.845Z,18.76
2023-05-13T13:08:27.897Z,18.94
2023-05-13T13:09:26.847Z,19.11
2023-05-13T13:10:26.808Z,19.35
2023-05-13T13:11:26.836Z,19.61
2023-05-13T13:12:26.787Z,19.58
2023-05-13T13:13:26.750Z,19.39
2023-05-13T13:14:26.754Z,19.23
2023-05-13T13:15:26.738Z,19.02
2023-05-13T13:16:26.750Z,18.87
2023-05-13T13:17:26.753Z,18.73
2023-05-13T13:18:26.809Z,18.58
2023-05-13T13:19:26.908Z,18.42
2023-05-13T13:20:26.675Z,18.25
2023-05-13T13:21:26.652Z,18.09
2023-05-13T13:22:26.634Z,17.97
2023-05-13T13:23:26.637Z,17.85
2023-05-13T13:24:26.655Z,17.76
2023-05-13T13:25:26.610Z,17.69
2023-05-13T13:26:26.588Z,17.55
2023-05-13T13:27:26.573Z,17.51
2023-05-13T13:28:26.661Z,17.47
2023-05-13T13:29:26.555Z,17.46
2023-05-13T13:30:26.541Z,17.44